sensor_id;sensor_type;location;lat;lon;timestamp;P1;durP1;ratioP1;P2;durP2;ratioP2
14611;SDS011;7392;52.078;11.650;2022-11-02T00:00:25;1.47;;;0.87;;
14611;SDS011;7392;52.078;11.650;2022-11-02T00:02:53;1.00;;;0.70;;
14611;SDS011;7392;52.078;11.650;2022-11-02T00:05:22;0.80;;;0.73;;
14611;SDS011;7392;52.078;11.650;2022-11-02T00:07:50;0.93;;;0.70;;
14611;SDS011;7392;52.078;11.650;2022-11-02T00:10:19;0.73;;;0.67;;
14611;SDS011;7392;52.078;11.650;2022-11-02T00:12:48;1.17;;;0.60;;
14611;SDS011;7392;52.078;11.650;2022-11-02T00:15:17;1.87;;;0.70;;
14611;SDS011;7392;52.078;11.650;2022-11-02T00:17:45;0.93;;;0.70;;
14611;SDS011;7392;52.078;11.650;2022-11-02T00:20:15;1.20;;;0.87;;
14611;SDS011;7392;52.078;11.650;2022-11-02T00:22:46;1.60;;;0.80;;
14611;SDS011;7392;52.078;11.650;2022-11-02T00:25:17;0.90;;;0.70;;
14611;SDS011;7392;52.078;11.650;2022-11-02T00:27:47;1.17;;;0.80;;
14611;SDS011;7392;52.078;11.650;2022-11-02T00:30:15;0.70;;;0.70;;
14611;SDS011;7392;52.078;11.650;2022-11-02T00:32:43;2.27;;;0.87;;
14611;SDS011;7392;52.078;11.650;2022-11-02T00:35:11;0.77;;;0.77;;
14611;SDS011;7392;52.078;11.650;2022-11-02T00:37:39;0.60;;;0.60;;
14611;SDS011;7392;52.078;11.650;2022-11-02T00:40:10;0.70;;;0.67;;
14611;SDS011;7392;52.078;11.650;2022-11-02T00:42:38;0.90;;;0.70;;
14611;SDS011;7392;52.078;11.650;2022-11-02T00:45:07;0.80;;;0.73;;
14611;SDS011;7392;52.078;11.650;2022-11-02T00:47:35;0.80;;;0.70;;
14611;SDS011;7392;52.078;11.650;2022-11-02T00:50:04;2.20;;;0.90;;
14611;SDS011;7392;52.078;11.650;2022-11-02T00:52:37;1.13;;;0.53;;
14611;SDS011;7392;52.078;11.650;2022-11-02T00:55:06;1.20;;;0.80;;
14611;SDS011;7392;52.078;11.650;2022-11-02T00:57:39;0.67;;;0.60;;
14611;SDS011;7392;52.078;11.650;2022-11-02T01:00:08;1.83;;;0.57;;
14611;SDS011;7392;52.078;11.650;2022-11-02T01:02:37;0.77;;;0.70;;
14611;SDS011;7392;52.078;11.650;2022-11-02T01:05:06;0.93;;;0.80;;
14611;SDS011;7392;52.078;11.650;2022-11-02T01:07:35;1.50;;;0.80;;
14611;SDS011;7392;52.078;11.650;2022-11-02T01:10:04;2.63;;;0.93;;
14611;SDS011;7392;52.078;11.650;2022-11-02T01:12:32;1.87;;;0.90;;
14611;SDS011;7392;52.078;11.650;2022-11-02T01:15:02;1.37;;;1.00;;
14611;SDS011;7392;52.078;11.650;2022-11-02T01:17:30;2.07;;;1.10;;
14611;SDS011;7392;52.078;11.650;2022-11-02T01:19:57;3.80;;;1.03;;
14611;SDS011;7392;52.078;11.650;2022-11-02T01:22:25;1.80;;;0.80;;
14611;SDS011;7392;52.078;11.650;2022-11-02T01:24:53;1.50;;;0.80;;
14611;SDS011;7392;52.078;11.650;2022-11-02T01:27:21;1.70;;;0.80;;
14611;SDS011;7392;52.078;11.650;2022-11-02T01:29:49;2.37;;;0.83;;
14611;SDS011;7392;52.078;11.650;2022-11-02T01:32:18;1.60;;;0.93;;
14611;SDS011;7392;52.078;11.650;2022-11-02T01:34:46;3.40;;;1.20;;
14611;SDS011;7392;52.078;11.650;2022-11-02T01:37:14;2.73;;;1.10;;
14611;SDS011;7392;52.078;11.650;2022-11-02T01:39:42;3.60;;;1.00;;
14611;SDS011;7392;52.078;11.650;2022-11-02T01:42:15;2.03;;;1.07;;
14611;SDS011;7392;52.078;11.650;2022-11-02T01:44:44;3.17;;;1.10;;
14611;SDS011;7392;52.078;11.650;2022-11-02T01:47:13;1.77;;;0.97;;
14611;SDS011;7392;52.078;11.650;2022-11-02T01:49:49;2.57;;;0.90;;
14611;SDS011;7392;52.078;11.650;2022-11-02T01:52:24;1.20;;;0.67;;
14611;SDS011;7392;52.078;11.650;2022-11-02T01:54:56;1.30;;;0.80;;
14611;SDS011;7392;52.078;11.650;2022-11-02T01:57:27;3.33;;;1.20;;
14611;SDS011;7392;52.078;11.650;2022-11-02T01:59:58;1.77;;;0.80;;
14611;SDS011;7392;52.078;11.650;2022-11-02T02:02:42;1.73;;;0.90;;
14611;SDS011;7392;52.078;11.650;2022-11-02T02:05:14;1.53;;;0.77;;
14611;SDS011;7392;52.078;11.650;2022-11-02T02:07:43;2.07;;;0.93;;
14611;SDS011;7392;52.078;11.650;2022-11-02T02:10:12;2.57;;;0.97;;
14611;SDS011;7392;52.078;11.650;2022-11-02T02:12:41;1.57;;;0.60;;
14611;SDS011;7392;52.078;11.650;2022-11-02T02:15:13;2.67;;;0.83;;
14611;SDS011;7392;52.078;11.650;2022-11-02T02:17:43;1.13;;;0.60;;
14611;SDS011;7392;52.078;11.650;2022-11-02T02:20:18;0.73;;;0.53;;
14611;SDS011;7392;52.078;11.650;2022-11-02T02:23:07;0.80;;;0.50;;
14611;SDS011;7392;52.078;11.650;2022-11-02T02:25:49;1.03;;;0.73;;
14611;SDS011;7392;52.078;11.650;2022-11-02T02:28:31;1.10;;;0.70;;
14611;SDS011;7392;52.078;11.650;2022-11-02T02:31:08;0.73;;;0.50;;
14611;SDS011;7392;52.078;11.650;2022-11-02T02:33:44;1.63;;;0.80;;
14611;SDS011;7392;52.078;11.650;2022-11-02T02:36:20;1.80;;;0.80;;
14611;SDS011;7392;52.078;11.650;2022-11-02T02:38:55;1.03;;;0.60;;
14611;SDS011;7392;52.078;11.650;2022-11-02T02:41:30;1.87;;;0.77;;
14611;SDS011;7392;52.078;11.650;2022-11-02T02:44:06;0.93;;;0.60;;
14611;SDS011;7392;52.078;11.650;2022-11-02T02:46:39;1.10;;;0.57;;
14611;SDS011;7392;52.078;11.650;2022-11-02T02:49:14;0.90;;;0.60;;
14611;SDS011;7392;52.078;11.650;2022-11-02T02:51:47;0.57;;;0.57;;
14611;SDS011;7392;52.078;11.650;2022-11-02T02:54:18;0.57;;;0.47;;
14611;SDS011;7392;52.078;11.650;2022-11-02T02:56:50;0.63;;;0.43;;
14611;SDS011;7392;52.078;11.650;2022-11-02T02:59:23;0.90;;;0.50;;
14611;SDS011;7392;52.078;11.650;2022-11-02T03:01:57;0.43;;;0.40;;
14611;SDS011;7392;52.078;11.650;2022-11-02T03:04:25;0.90;;;0.47;;
14611;SDS011;7392;52.078;11.650;2022-11-02T03:06:53;1.37;;;0.33;;
14611;SDS011;7392;52.078;11.650;2022-11-02T03:09:26;1.00;;;0.50;;
14611;SDS011;7392;52.078;11.650;2022-11-02T03:12:04;0.57;;;0.40;;
14611;SDS011;7392;52.078;11.650;2022-11-02T03:14:42;2.10;;;0.77;;
14611;SDS011;7392;52.078;11.650;2022-11-02T03:17:24;0.90;;;0.53;;
14611;SDS011;7392;52.078;11.650;2022-11-02T03:20:01;0.53;;;0.50;;
14611;SDS011;7392;52.078;11.650;2022-11-02T03:22:37;1.10;;;0.60;;
14611;SDS011;7392;52.078;11.650;2022-11-02T03:25:14;1.00;;;0.50;;
14611;SDS011;7392;52.078;11.650;2022-11-02T03:27:49;0.50;;;0.50;;
14611;SDS011;7392;52.078;11.650;2022-11-02T03:30:23;1.17;;;0.70;;
14611;SDS011;7392;52.078;11.650;2022-11-02T03:32:55;0.50;;;0.40;;
14611;SDS011;7392;52.078;11.650;2022-11-02T03:35:30;3.57;;;1.13;;
14611;SDS011;7392;52.078;11.650;2022-11-02T03:38:03;1.97;;;0.70;;
14611;SDS011;7392;52.078;11.650;2022-11-02T03:40:40;3.03;;;1.20;;
14611;SDS011;7392;52.078;11.650;2022-11-02T03:43:11;4.90;;;1.43;;
14611;SDS011;7392;52.078;11.650;2022-11-02T03:45:43;6.30;;;1.87;;
14611;SDS011;7392;52.078;11.650;2022-11-02T03:48:16;4.60;;;1.70;;
14611;SDS011;7392;52.078;11.650;2022-11-02T03:50:47;8.60;;;1.80;;
14611;SDS011;7392;52.078;11.650;2022-11-02T03:53:20;4.87;;;1.77;;
14611;SDS011;7392;52.078;11.650;2022-11-02T03:55:55;5.47;;;1.90;;
14611;SDS011;7392;52.078;11.650;2022-11-02T03:58:29;6.53;;;1.60;;
14611;SDS011;7392;52.078;11.650;2022-11-02T04:00:59;3.10;;;1.40;;
14611;SDS011;7392;52.078;11.650;2022-11-02T04:03:29;4.43;;;1.63;;
14611;SDS011;7392;52.078;11.650;2022-11-02T04:06:00;4.83;;;1.70;;
14611;SDS011;7392;52.078;11.650;2022-11-02T04:08:31;3.47;;;1.30;;
14611;SDS011;7392;52.078;11.650;2022-11-02T04:11:05;3.17;;;1.00;;
14611;SDS011;7392;52.078;11.650;2022-11-02T04:13:55;3.50;;;1.20;;
14611;SDS011;7392;52.078;11.650;2022-11-02T04:16:43;2.90;;;1.20;;
14611;SDS011;7392;52.078;11.650;2022-11-02T04:19:17;2.23;;;1.20;;
14611;SDS011;7392;52.078;11.650;2022-11-02T04:22:00;2.40;;;0.90;;
14611;SDS011;7392;52.078;11.650;2022-11-02T04:24:49;5.03;;;1.50;;
14611;SDS011;7392;52.078;11.650;2022-11-02T04:27:36;4.17;;;1.13;;
14611;SDS011;7392;52.078;11.650;2022-11-02T04:30:05;4.70;;;1.47;;
14611;SDS011;7392;52.078;11.650;2022-11-02T04:32:39;2.17;;;1.20;;
14611;SDS011;7392;52.078;11.650;2022-11-02T04:35:29;4.47;;;1.60;;
14611;SDS011;7392;52.078;11.650;2022-11-02T04:37:57;3.37;;;1.70;;
14611;SDS011;7392;52.078;11.650;2022-11-02T04:40:44;5.57;;;1.80;;
14611;SDS011;7392;52.078;11.650;2022-11-02T04:43:12;3.53;;;1.40;;
14611;SDS011;7392;52.078;11.650;2022-11-02T04:45:40;2.13;;;1.00;;
14611;SDS011;7392;52.078;11.650;2022-11-02T04:48:10;3.27;;;1.30;;
14611;SDS011;7392;52.078;11.650;2022-11-02T04:50:38;5.57;;;1.40;;
14611;SDS011;7392;52.078;11.650;2022-11-02T04:53:07;3.17;;;1.60;;
14611;SDS011;7392;52.078;11.650;2022-11-02T04:55:36;2.30;;;1.27;;
14611;SDS011;7392;52.078;11.650;2022-11-02T04:58:05;3.47;;;1.57;;
14611;SDS011;7392;52.078;11.650;2022-11-02T05:00:33;2.83;;;1.37;;
14611;SDS011;7392;52.078;11.650;2022-11-02T05:03:01;4.13;;;1.30;;
14611;SDS011;7392;52.078;11.650;2022-11-02T05:05:38;3.67;;;1.20;;
14611;SDS011;7392;52.078;11.650;2022-11-02T05:08:06;7.93;;;1.90;;
14611;SDS011;7392;52.078;11.650;2022-11-02T05:10:35;7.03;;;1.90;;
14611;SDS011;7392;52.078;11.650;2022-11-02T05:13:04;3.80;;;1.87;;
14611;SDS011;7392;52.078;11.650;2022-11-02T05:15:34;5.87;;;1.90;;
14611;SDS011;7392;52.078;11.650;2022-11-02T05:18:06;7.13;;;2.07;;
14611;SDS011;7392;52.078;11.650;2022-11-02T05:20:35;8.93;;;2.13;;
14611;SDS011;7392;52.078;11.650;2022-11-02T05:23:04;8.47;;;1.97;;
14611;SDS011;7392;52.078;11.650;2022-11-02T05:25:32;6.97;;;2.07;;
14611;SDS011;7392;52.078;11.650;2022-11-02T05:28:01;9.03;;;2.20;;
14611;SDS011;7392;52.078;11.650;2022-11-02T05:30:28;8.20;;;2.53;;
14611;SDS011;7392;52.078;11.650;2022-11-02T05:32:56;8.00;;;2.40;;
14611;SDS011;7392;52.078;11.650;2022-11-02T05:35:26;7.00;;;1.93;;
14611;SDS011;7392;52.078;11.650;2022-11-02T05:37:54;7.50;;;1.80;;
14611;SDS011;7392;52.078;11.650;2022-11-02T05:40:24;12.33;;;2.40;;
14611;SDS011;7392;52.078;11.650;2022-11-02T05:42:57;5.37;;;1.70;;
14611;SDS011;7392;52.078;11.650;2022-11-02T05:45:26;6.53;;;1.90;;
14611;SDS011;7392;52.078;11.650;2022-11-02T05:47:54;8.00;;;2.13;;
14611;SDS011;7392;52.078;11.650;2022-11-02T05:50:22;12.77;;;2.57;;
14611;SDS011;7392;52.078;11.650;2022-11-02T05:52:51;8.43;;;2.07;;
14611;SDS011;7392;52.078;11.650;2022-11-02T05:55:19;8.80;;;1.93;;
14611;SDS011;7392;52.078;11.650;2022-11-02T05:57:50;9.27;;;2.23;;
14611;SDS011;7392;52.078;11.650;2022-11-02T06:00:19;6.83;;;2.37;;
14611;SDS011;7392;52.078;11.650;2022-11-02T06:02:55;7.97;;;2.13;;
14611;SDS011;7392;52.078;11.650;2022-11-02T06:05:23;6.90;;;1.90;;
14611;SDS011;7392;52.078;11.650;2022-11-02T06:07:52;5.23;;;1.70;;
14611;SDS011;7392;52.078;11.650;2022-11-02T06:10:24;8.63;;;2.30;;
14611;SDS011;7392;52.078;11.650;2022-11-02T06:12:57;6.67;;;2.17;;
14611;SDS011;7392;52.078;11.650;2022-11-02T06:15:27;9.03;;;2.03;;
14611;SDS011;7392;52.078;11.650;2022-11-02T06:17:57;5.63;;;2.20;;
14611;SDS011;7392;52.078;11.650;2022-11-02T06:20:25;5.63;;;1.97;;
14611;SDS011;7392;52.078;11.650;2022-11-02T06:22:53;4.03;;;1.33;;
14611;SDS011;7392;52.078;11.650;2022-11-02T06:25:20;5.33;;;1.60;;
14611;SDS011;7392;52.078;11.650;2022-11-02T06:27:49;7.30;;;1.97;;
14611;SDS011;7392;52.078;11.650;2022-11-02T06:30:20;7.13;;;1.70;;
14611;SDS011;7392;52.078;11.650;2022-11-02T06:32:48;7.23;;;2.40;;
14611;SDS011;7392;52.078;11.650;2022-11-02T06:35:17;8.00;;;2.23;;
14611;SDS011;7392;52.078;11.650;2022-11-02T06:37:47;5.17;;;1.73;;
14611;SDS011;7392;52.078;11.650;2022-11-02T06:40:15;6.77;;;1.90;;
14611;SDS011;7392;52.078;11.650;2022-11-02T06:42:48;4.50;;;1.43;;
14611;SDS011;7392;52.078;11.650;2022-11-02T06:45:37;9.50;;;2.23;;
14611;SDS011;7392;52.078;11.650;2022-11-02T06:48:05;6.03;;;1.93;;
14611;SDS011;7392;52.078;11.650;2022-11-02T06:50:32;7.47;;;1.90;;
14611;SDS011;7392;52.078;11.650;2022-11-02T06:53:00;7.37;;;2.00;;
14611;SDS011;7392;52.078;11.650;2022-11-02T06:55:29;5.90;;;1.90;;
14611;SDS011;7392;52.078;11.650;2022-11-02T06:57:57;7.23;;;2.23;;
14611;SDS011;7392;52.078;11.650;2022-11-02T07:00:24;4.70;;;1.70;;
14611;SDS011;7392;52.078;11.650;2022-11-02T07:03:00;4.07;;;1.67;;
14611;SDS011;7392;52.078;11.650;2022-11-02T07:05:29;7.70;;;1.50;;
14611;SDS011;7392;52.078;11.650;2022-11-02T07:07:57;6.77;;;1.87;;
14611;SDS011;7392;52.078;11.650;2022-11-02T07:10:26;7.10;;;2.07;;
14611;SDS011;7392;52.078;11.650;2022-11-02T07:12:55;8.87;;;2.33;;
14611;SDS011;7392;52.078;11.650;2022-11-02T07:15:24;8.57;;;1.97;;
14611;SDS011;7392;52.078;11.650;2022-11-02T07:17:54;8.17;;;1.83;;
14611;SDS011;7392;52.078;11.650;2022-11-02T07:20:23;9.13;;;2.03;;
14611;SDS011;7392;52.078;11.650;2022-11-02T07:22:51;6.20;;;1.90;;
14611;SDS011;7392;52.078;11.650;2022-11-02T07:25:19;5.10;;;1.60;;
14611;SDS011;7392;52.078;11.650;2022-11-02T07:27:47;8.63;;;2.50;;
14611;SDS011;7392;52.078;11.650;2022-11-02T07:30:15;7.20;;;2.27;;
14611;SDS011;7392;52.078;11.650;2022-11-02T07:32:44;9.10;;;2.17;;
14611;SDS011;7392;52.078;11.650;2022-11-02T07:35:13;9.67;;;2.30;;
14611;SDS011;7392;52.078;11.650;2022-11-02T07:37:44;8.67;;;2.03;;
14611;SDS011;7392;52.078;11.650;2022-11-02T07:40:21;8.97;;;2.50;;
14611;SDS011;7392;52.078;11.650;2022-11-02T07:42:49;8.00;;;2.10;;
14611;SDS011;7392;52.078;11.650;2022-11-02T07:45:26;6.07;;;2.30;;
14611;SDS011;7392;52.078;11.650;2022-11-02T07:47:54;8.17;;;1.97;;
14611;SDS011;7392;52.078;11.650;2022-11-02T07:50:23;6.07;;;1.90;;
14611;SDS011;7392;52.078;11.650;2022-11-02T07:52:54;8.50;;;2.00;;
14611;SDS011;7392;52.078;11.650;2022-11-02T07:55:24;5.43;;;2.00;;
14611;SDS011;7392;52.078;11.650;2022-11-02T07:57:54;5.47;;;1.93;;
14611;SDS011;7392;52.078;11.650;2022-11-02T08:00:23;5.17;;;1.70;;
14611;SDS011;7392;52.078;11.650;2022-11-02T08:02:55;4.70;;;1.83;;
14611;SDS011;7392;52.078;11.650;2022-11-02T08:05:23;5.43;;;1.60;;
14611;SDS011;7392;52.078;11.650;2022-11-02T08:07:56;3.13;;;1.57;;
14611;SDS011;7392;52.078;11.650;2022-11-02T08:10:24;7.40;;;2.17;;
14611;SDS011;7392;52.078;11.650;2022-11-02T08:12:54;7.20;;;2.00;;
14611;SDS011;7392;52.078;11.650;2022-11-02T08:15:22;5.23;;;1.77;;
14611;SDS011;7392;52.078;11.650;2022-11-02T08:17:58;4.03;;;1.40;;
14611;SDS011;7392;52.078;11.650;2022-11-02T08:20:28;5.13;;;1.80;;
14611;SDS011;7392;52.078;11.650;2022-11-02T08:22:58;6.53;;;2.17;;
14611;SDS011;7392;52.078;11.650;2022-11-02T08:25:26;6.73;;;1.80;;
14611;SDS011;7392;52.078;11.650;2022-11-02T08:27:54;3.53;;;1.43;;
14611;SDS011;7392;52.078;11.650;2022-11-02T08:30:23;8.33;;;2.50;;
14611;SDS011;7392;52.078;11.650;2022-11-02T08:32:51;6.43;;;1.97;;
14611;SDS011;7392;52.078;11.650;2022-11-02T08:35:22;7.37;;;2.00;;
14611;SDS011;7392;52.078;11.650;2022-11-02T08:37:53;7.40;;;1.97;;
14611;SDS011;7392;52.078;11.650;2022-11-02T08:40:23;5.30;;;2.10;;
14611;SDS011;7392;52.078;11.650;2022-11-02T08:42:54;7.90;;;2.30;;
14611;SDS011;7392;52.078;11.650;2022-11-02T08:45:22;9.97;;;2.13;;
14611;SDS011;7392;52.078;11.650;2022-11-02T08:47:50;7.30;;;2.27;;
14611;SDS011;7392;52.078;11.650;2022-11-02T08:50:18;6.43;;;2.07;;
14611;SDS011;7392;52.078;11.650;2022-11-02T08:52:47;5.83;;;2.23;;
14611;SDS011;7392;52.078;11.650;2022-11-02T08:55:15;4.80;;;1.97;;
14611;SDS011;7392;52.078;11.650;2022-11-02T08:57:45;7.07;;;2.40;;
14611;SDS011;7392;52.078;11.650;2022-11-02T09:00:13;6.77;;;2.23;;
14611;SDS011;7392;52.078;11.650;2022-11-02T09:02:42;7.47;;;2.63;;
14611;SDS011;7392;52.078;11.650;2022-11-02T09:05:10;6.87;;;2.07;;
14611;SDS011;7392;52.078;11.650;2022-11-02T09:07:38;9.83;;;2.40;;
14611;SDS011;7392;52.078;11.650;2022-11-02T09:10:06;9.77;;;2.40;;
14611;SDS011;7392;52.078;11.650;2022-11-02T09:12:35;6.33;;;2.23;;
14611;SDS011;7392;52.078;11.650;2022-11-02T09:15:05;9.97;;;2.50;;
14611;SDS011;7392;52.078;11.650;2022-11-02T09:17:33;4.77;;;2.30;;
14611;SDS011;7392;52.078;11.650;2022-11-02T09:20:01;9.33;;;2.80;;
14611;SDS011;7392;52.078;11.650;2022-11-02T09:22:29;7.63;;;2.23;;
14611;SDS011;7392;52.078;11.650;2022-11-02T09:24:57;11.13;;;2.30;;
14611;SDS011;7392;52.078;11.650;2022-11-02T09:27:25;6.30;;;2.23;;
14611;SDS011;7392;52.078;11.650;2022-11-02T09:29:53;11.73;;;2.37;;
14611;SDS011;7392;52.078;11.650;2022-11-02T09:32:22;7.27;;;2.40;;
14611;SDS011;7392;52.078;11.650;2022-11-02T09:34:50;6.23;;;2.10;;
14611;SDS011;7392;52.078;11.650;2022-11-02T09:37:18;8.23;;;2.20;;
14611;SDS011;7392;52.078;11.650;2022-11-02T09:39:46;9.83;;;2.37;;
14611;SDS011;7392;52.078;11.650;2022-11-02T09:42:15;8.07;;;2.17;;
14611;SDS011;7392;52.078;11.650;2022-11-02T09:44:49;6.80;;;2.40;;
14611;SDS011;7392;52.078;11.650;2022-11-02T09:47:24;6.97;;;2.20;;
14611;SDS011;7392;52.078;11.650;2022-11-02T09:50:15;5.13;;;2.13;;
14611;SDS011;7392;52.078;11.650;2022-11-02T09:52:48;6.73;;;2.20;;
14611;SDS011;7392;52.078;11.650;2022-11-02T09:55:22;6.23;;;2.30;;
14611;SDS011;7392;52.078;11.650;2022-11-02T09:57:56;5.03;;;2.40;;
14611;SDS011;7392;52.078;11.650;2022-11-02T10:00:31;4.97;;;1.80;;
14611;SDS011;7392;52.078;11.650;2022-11-02T10:03:07;6.47;;;2.53;;
14611;SDS011;7392;52.078;11.650;2022-11-02T10:05:44;4.93;;;1.83;;
14611;SDS011;7392;52.078;11.650;2022-11-02T10:08:24;4.93;;;2.10;;
14611;SDS011;7392;52.078;11.650;2022-11-02T10:11:03;4.93;;;1.93;;
14611;SDS011;7392;52.078;11.650;2022-11-02T10:13:45;7.87;;;2.07;;
14611;SDS011;7392;52.078;11.650;2022-11-02T10:16:23;6.07;;;1.87;;
14611;SDS011;7392;52.078;11.650;2022-11-02T10:18:57;6.47;;;1.90;;
14611;SDS011;7392;52.078;11.650;2022-11-02T10:21:26;5.53;;;2.13;;
14611;SDS011;7392;52.078;11.650;2022-11-02T10:23:59;5.17;;;1.90;;
14611;SDS011;7392;52.078;11.650;2022-11-02T10:26:36;7.47;;;2.10;;
14611;SDS011;7392;52.078;11.650;2022-11-02T10:29:11;3.67;;;1.60;;
14611;SDS011;7392;52.078;11.650;2022-11-02T10:31:44;4.33;;;1.60;;
14611;SDS011;7392;52.078;11.650;2022-11-02T10:34:19;4.63;;;2.10;;
14611;SDS011;7392;52.078;11.650;2022-11-02T10:36:54;6.07;;;1.93;;
14611;SDS011;7392;52.078;11.650;2022-11-02T10:39:34;6.60;;;1.87;;
14611;SDS011;7392;52.078;11.650;2022-11-02T10:42:20;6.30;;;1.60;;
14611;SDS011;7392;52.078;11.650;2022-11-02T10:48:06;3.97;;;1.57;;
14611;SDS011;7392;52.078;11.650;2022-11-02T10:50:46;3.47;;;1.67;;
14611;SDS011;7392;52.078;11.650;2022-11-02T10:53:20;2.77;;;1.33;;
14611;SDS011;7392;52.078;11.650;2022-11-02T10:56:13;5.97;;;1.60;;
14611;SDS011;7392;52.078;11.650;2022-11-02T10:58:44;5.13;;;1.60;;
14611;SDS011;7392;52.078;11.650;2022-11-02T11:01:19;4.63;;;1.77;;
14611;SDS011;7392;52.078;11.650;2022-11-02T11:03:51;5.23;;;2.00;;
14611;SDS011;7392;52.078;11.650;2022-11-02T11:06:23;2.40;;;1.27;;
14611;SDS011;7392;52.078;11.650;2022-11-02T11:08:57;5.17;;;1.67;;
14611;SDS011;7392;52.078;11.650;2022-11-02T11:11:27;4.03;;;1.43;;
14611;SDS011;7392;52.078;11.650;2022-11-02T11:13:58;5.17;;;1.50;;
14611;SDS011;7392;52.078;11.650;2022-11-02T11:16:49;4.07;;;1.30;;
14611;SDS011;7392;52.078;11.650;2022-11-02T11:19:25;3.37;;;1.37;;
14611;SDS011;7392;52.078;11.650;2022-11-02T11:22:01;5.97;;;1.70;;
14611;SDS011;7392;52.078;11.650;2022-11-02T11:24:31;4.80;;;1.80;;
14611;SDS011;7392;52.078;11.650;2022-11-02T11:27:01;2.17;;;1.03;;
14611;SDS011;7392;52.078;11.650;2022-11-02T11:29:31;5.93;;;1.70;;
14611;SDS011;7392;52.078;11.650;2022-11-02T11:32:00;3.33;;;1.40;;
14611;SDS011;7392;52.078;11.650;2022-11-02T11:34:30;6.03;;;1.80;;
14611;SDS011;7392;52.078;11.650;2022-11-02T11:37:05;2.87;;;1.27;;
14611;SDS011;7392;52.078;11.650;2022-11-02T11:39:36;4.57;;;1.57;;
14611;SDS011;7392;52.078;11.650;2022-11-02T11:42:12;5.23;;;1.40;;
14611;SDS011;7392;52.078;11.650;2022-11-02T11:44:45;5.33;;;1.60;;
14611;SDS011;7392;52.078;11.650;2022-11-02T11:47:22;5.40;;;1.37;;
14611;SDS011;7392;52.078;11.650;2022-11-02T11:49:53;4.50;;;1.53;;
14611;SDS011;7392;52.078;11.650;2022-11-02T11:52:43;4.90;;;1.63;;
14611;SDS011;7392;52.078;11.650;2022-11-02T11:55:22;4.70;;;1.63;;
14611;SDS011;7392;52.078;11.650;2022-11-02T11:58:03;5.60;;;1.70;;
14611;SDS011;7392;52.078;11.650;2022-11-02T12:00:33;5.67;;;1.70;;
14611;SDS011;7392;52.078;11.650;2022-11-02T12:03:02;5.03;;;1.83;;
14611;SDS011;7392;52.078;11.650;2022-11-02T12:05:35;6.00;;;1.63;;
14611;SDS011;7392;52.078;11.650;2022-11-02T12:08:24;4.57;;;1.47;;
14611;SDS011;7392;52.078;11.650;2022-11-02T12:11:06;2.50;;;1.40;;
14611;SDS011;7392;52.078;11.650;2022-11-02T12:13:54;5.40;;;1.60;;
14611;SDS011;7392;52.078;11.650;2022-11-02T12:16:33;3.70;;;1.13;;
14611;SDS011;7392;52.078;11.650;2022-11-02T12:19:19;3.60;;;1.30;;
14611;SDS011;7392;52.078;11.650;2022-11-02T12:22:00;3.13;;;1.40;;
14611;SDS011;7392;52.078;11.650;2022-11-02T12:24:44;5.73;;;1.70;;
14611;SDS011;7392;52.078;11.650;2022-11-02T12:27:29;3.53;;;1.20;;
14611;SDS011;7392;52.078;11.650;2022-11-02T12:30:08;5.27;;;1.70;;
14611;SDS011;7392;52.078;11.650;2022-11-02T12:35:35;3.03;;;1.27;;
14611;SDS011;7392;52.078;11.650;2022-11-02T12:38:17;6.27;;;1.97;;
14611;SDS011;7392;52.078;11.650;2022-11-02T12:41:02;3.83;;;1.60;;
14611;SDS011;7392;52.078;11.650;2022-11-02T12:43:37;6.03;;;1.60;;
14611;SDS011;7392;52.078;11.650;2022-11-02T12:46:09;5.77;;;1.40;;
14611;SDS011;7392;52.078;11.650;2022-11-02T12:48:51;4.67;;;1.50;;
14611;SDS011;7392;52.078;11.650;2022-11-02T12:51:27;2.43;;;1.13;;
14611;SDS011;7392;52.078;11.650;2022-11-02T12:54:00;2.53;;;1.20;;
14611;SDS011;7392;52.078;11.650;2022-11-02T12:56:38;7.57;;;1.80;;
14611;SDS011;7392;52.078;11.650;2022-11-02T12:59:13;5.00;;;1.50;;
14611;SDS011;7392;52.078;11.650;2022-11-02T13:01:45;3.70;;;1.30;;
14611;SDS011;7392;52.078;11.650;2022-11-02T13:04:19;5.77;;;1.63;;
14611;SDS011;7392;52.078;11.650;2022-11-02T13:06:56;2.73;;;1.13;;
14611;SDS011;7392;52.078;11.650;2022-11-02T13:09:30;7.80;;;1.23;;
14611;SDS011;7392;52.078;11.650;2022-11-02T13:12:03;1.97;;;1.00;;
14611;SDS011;7392;52.078;11.650;2022-11-02T13:14:37;2.47;;;0.90;;
14611;SDS011;7392;52.078;11.650;2022-11-02T13:17:08;4.07;;;1.17;;
14611;SDS011;7392;52.078;11.650;2022-11-02T13:19:42;3.53;;;1.20;;
14611;SDS011;7392;52.078;11.650;2022-11-02T13:22:14;3.30;;;1.00;;
14611;SDS011;7392;52.078;11.650;2022-11-02T13:24:47;3.73;;;1.20;;
14611;SDS011;7392;52.078;11.650;2022-11-02T13:27:26;5.33;;;1.47;;
14611;SDS011;7392;52.078;11.650;2022-11-02T13:30:03;2.57;;;1.10;;
14611;SDS011;7392;52.078;11.650;2022-11-02T13:32:33;4.60;;;1.63;;
14611;SDS011;7392;52.078;11.650;2022-11-02T13:35:11;3.77;;;1.23;;
14611;SDS011;7392;52.078;11.650;2022-11-02T13:37:44;2.60;;;1.10;;
14611;SDS011;7392;52.078;11.650;2022-11-02T13:40:17;2.50;;;1.20;;
14611;SDS011;7392;52.078;11.650;2022-11-02T13:45:48;4.37;;;1.40;;
14611;SDS011;7392;52.078;11.650;2022-11-02T13:48:37;6.23;;;1.40;;
14611;SDS011;7392;52.078;11.650;2022-11-02T13:51:18;7.07;;;2.00;;
14611;SDS011;7392;52.078;11.650;2022-11-02T13:53:53;6.37;;;1.67;;
14611;SDS011;7392;52.078;11.650;2022-11-02T13:56:27;4.33;;;1.63;;
14611;SDS011;7392;52.078;11.650;2022-11-02T13:58:58;5.13;;;1.57;;
14611;SDS011;7392;52.078;11.650;2022-11-02T14:01:29;4.43;;;1.37;;
14611;SDS011;7392;52.078;11.650;2022-11-02T14:04:01;4.80;;;1.50;;
14611;SDS011;7392;52.078;11.650;2022-11-02T14:06:32;2.40;;;1.00;;
14611;SDS011;7392;52.078;11.650;2022-11-02T14:09:17;4.17;;;1.77;;
14611;SDS011;7392;52.078;11.650;2022-11-02T14:12:09;12.67;;;4.30;;
14611;SDS011;7392;52.078;11.650;2022-11-02T14:18:26;6.57;;;2.50;;
14611;SDS011;7392;52.078;11.650;2022-11-02T14:20:57;4.03;;;1.30;;
14611;SDS011;7392;52.078;11.650;2022-11-02T14:23:33;4.07;;;1.57;;
14611;SDS011;7392;52.078;11.650;2022-11-02T14:29:02;5.47;;;1.60;;
14611;SDS011;7392;52.078;11.650;2022-11-02T14:31:39;4.67;;;1.70;;
14611;SDS011;7392;52.078;11.650;2022-11-02T14:34:22;2.77;;;1.43;;
14611;SDS011;7392;52.078;11.650;2022-11-02T14:37:13;3.10;;;1.40;;
14611;SDS011;7392;52.078;11.650;2022-11-02T14:39:57;2.53;;;1.43;;
14611;SDS011;7392;52.078;11.650;2022-11-02T14:42:36;3.10;;;1.20;;
14611;SDS011;7392;52.078;11.650;2022-11-02T14:45:22;1.90;;;1.00;;
14611;SDS011;7392;52.078;11.650;2022-11-02T14:47:55;2.07;;;1.03;;
14611;SDS011;7392;52.078;11.650;2022-11-02T14:50:27;2.23;;;1.13;;
14611;SDS011;7392;52.078;11.650;2022-11-02T14:52:57;1.83;;;1.03;;
14611;SDS011;7392;52.078;11.650;2022-11-02T14:55:30;2.53;;;1.17;;
14611;SDS011;7392;52.078;11.650;2022-11-02T14:58:00;2.13;;;1.00;;
14611;SDS011;7392;52.078;11.650;2022-11-02T15:00:37;1.57;;;1.00;;
14611;SDS011;7392;52.078;11.650;2022-11-02T15:03:26;1.97;;;1.00;;
14611;SDS011;7392;52.078;11.650;2022-11-02T15:06:04;1.60;;;0.70;;
14611;SDS011;7392;52.078;11.650;2022-11-02T15:08:34;3.03;;;1.30;;
14611;SDS011;7392;52.078;11.650;2022-11-02T15:20:28;0.80;;;0.50;;
14611;SDS011;7392;52.078;11.650;2022-11-02T15:25:57;1.27;;;0.70;;
14611;SDS011;7392;52.078;11.650;2022-11-02T15:28:27;1.87;;;0.77;;
14611;SDS011;7392;52.078;11.650;2022-11-02T15:31:00;1.23;;;0.80;;
14611;SDS011;7392;52.078;11.650;2022-11-02T15:33:33;2.07;;;0.60;;
14611;SDS011;7392;52.078;11.650;2022-11-02T15:36:04;1.40;;;0.80;;
14611;SDS011;7392;52.078;11.650;2022-11-02T15:38:36;1.00;;;0.70;;
14611;SDS011;7392;52.078;11.650;2022-11-02T15:41:13;1.27;;;0.53;;
14611;SDS011;7392;52.078;11.650;2022-11-02T15:43:51;0.40;;;0.40;;
14611;SDS011;7392;52.078;11.650;2022-11-02T15:46:34;0.80;;;0.70;;
14611;SDS011;7392;52.078;11.650;2022-11-02T15:49:14;0.90;;;0.60;;